Time,TemperatureF,DewpointF,PressureIn,WindDirection,WindDirectionDegrees,WindSpeedMPH,WindSpeedGustMPH,Humidity,HourlyPrecipIn,Conditions,Clouds,dailyrainin,SoftwareType,DateUTC
2013-05-26 00:00:00,47.6,42.7,29.78,North,5,9.0,9.0,83,0.00,,,0.07,Wunderground v.1.15,2013-05-26 04:00:00,
2013-05-26 00:10:00,47.6,42.4,29.78,North,360,9.0,24.0,82,0.00,,,0.07,Wunderground v.1.15,2013-05-26 04:10:00,
2013-05-26 00:20:00,47.7,42.2,29.78,North,5,10.0,10.0,81,0.00,,,0.07,Wunderground v.1.15,2013-05-26 04:20:00,
2013-05-26 00:29:00,47.6,42.1,29.78,North,5,9.0,25.0,81,0.00,,,0.07,Wunderground v.1.15,2013-05-26 04:29:00,
2013-05-26 00:39:00,47.7,42.2,29.78,North,5,9.0,27.0,81,0.00,,,0.07,Wunderground v.1.15,2013-05-26 04:39:00,
2013-05-26 00:49:00,47.6,41.7,29.78,North,5,9.0,21.0,80,0.00,,,0.07,Wunderground v.1.15,2013-05-26 04:49:00,
2013-05-26 01:00:00,47.7,41.5,29.78,North,360,10.0,10.0,79,0.00,,,0.07,Wunderground v.1.15,2013-05-26 05:00:00,
2013-05-26 01:10:00,47.7,41.5,29.78,North,5,9.0,26.0,79,0.00,,,0.00,Wunderground v.1.15,2013-05-26 05:10:00,
2013-05-26 01:19:00,47.7,41.2,29.78,North,5,10.0,27.0,78,0.00,,,0.00,Wunderground v.1.15,2013-05-26 05:19:00,
2013-05-26 01:29:00,47.8,41.3,29.78,North,5,9.0,22.0,78,0.00,,,0.00,Wunderground v.1.15,2013-05-26 05:29:00,
2013-05-26 01:39:00,47.8,41.6,29.78,North,5,10.0,25.0,79,0.00,,,0.00,Wunderground v.1.15,2013-05-26 05:39:00,
2013-05-26 01:50:00,47.9,41.0,29.77,North,5,10.0,25.0,77,0.00,,,0.00,Wunderground v.1.15,2013-05-26 05:50:00,
2013-05-26 01:59:00,47.9,40.7,29.77,North,5,10.0,10.0,76,0.00,,,0.00,Wunderground v.1.15,2013-05-26 05:59:00,
2013-05-26 02:09:00,47.9,41.0,29.78,North,5,10.0,10.0,77,0.00,,,0.00,Wunderground v.1.15,2013-05-26 06:09:00,
2013-05-26 02:19:00,47.9,41.4,29.78,North,5,8.0,8.0,78,0.00,,,0.00,Wunderground v.1.15,2013-05-26 06:19:00,
2013-05-26 02:29:00,47.6,41.1,29.78,North,5,9.0,9.0,78,0.00,,,0.00,Wunderground v.1.15,2013-05-26 06:29:00,
2013-05-26 02:39:00,47.4,40.9,29.77,North,5,8.0,8.0,78,0.00,,,0.00,Wunderground v.1.15,2013-05-26 06:39:00,
2013-05-26 02:49:00,47.3,40.8,29.77,North,5,8.0,8.0,78,0.00,,,0.00,Wunderground v.1.15,2013-05-26 06:49:00,
2013-05-26 02:59:00,47.2,41.0,29.77,North,5,8.0,8.0,79,0.00,,,0.00,Wunderground v.1.15,2013-05-26 06:59:00,
2013-05-26 03:09:00,47.1,40.6,29.78,North,5,9.0,21.0,78,0.00,,,0.00,Wunderground v.1.15,2013-05-26 07:09:00,
2013-05-26 03:19:00,47.2,41.0,29.77,North,5,9.0,22.0,79,0.00,,,0.00,Wunderground v.1.15,2013-05-26 07:19:00,
2013-05-26 03:29:00,47.3,41.1,29.77,North,360,8.0,8.0,79,0.00,,,0.00,Wunderground v.1.15,2013-05-26 07:29:00,
2013-05-26 03:39:00,47.3,41.1,29.77,North,5,7.0,19.0,79,0.00,,,0.00,Wunderground v.1.15,2013-05-26 07:39:00,
2013-05-26 03:49:00,47.5,41.3,29.77,North,5,8.0,21.0,79,0.00,,,0.00,Wunderground v.1.15,2013-05-26 07:49:00,
2013-05-26 03:59:00,47.7,41.5,29.77,North,5,8.0,8.0,79,0.00,,,0.00,Wunderground v.1.15,2013-05-26 07:59:00,
2013-05-26 04:09:00,47.8,40.9,29.77,North,5,8.0,20.0,77,0.00,,,0.00,Wunderground v.1.15,2013-05-26 08:09:00,
2013-05-26 04:19:00,47.9,41.4,29.77,North,5,8.0,22.0,78,0.00,,,0.00,Wunderground v.1.15,2013-05-26 08:19:00,
2013-05-26 04:29:00,48.1,41.6,29.77,North,5,7.0,20.0,78,0.00,,,0.00,Wunderground v.1.15,2013-05-26 08:29:00,
2013-05-26 04:39:00,48.2,41.7,29.78,North,5,9.0,20.0,78,0.00,,,0.00,Wunderground v.1.15,2013-05-26 08:39:00,
2013-05-26 04:49:00,48.3,41.1,29.78,North,5,9.0,9.0,76,0.00,,,0.00,Wunderground v.1.15,2013-05-26 08:49:00,
2013-05-26 04:59:00,48.5,42.0,29.78,North,5,8.0,8.0,78,0.00,,,0.00,Wunderground v.1.15,2013-05-26 08:59:00,
2013-05-26 05:09:00,48.7,42.1,29.79,North,5,8.0,20.0,78,0.00,,,0.00,Wunderground v.1.15,2013-05-26 09:09:00,
2013-05-26 05:19:00,48.8,41.6,29.79,North,5,8.0,24.0,76,0.00,,,0.00,Wunderground v.1.15,2013-05-26 09:19:00,
2013-05-26 05:29:00,48.9,41.7,29.79,North,5,9.0,21.0,76,0.00,,,0.00,Wunderground v.1.15,2013-05-26 09:29:00,
2013-05-26 05:39:00,48.9,41.0,29.80,North,5,9.0,9.0,74,0.00,,,0.00,Wunderground v.1.15,2013-05-26 09:39:00,
2013-05-26 05:49:00,49.0,42.1,29.80,North,5,9.0,9.0,77,0.00,,,0.00,Wunderground v.1.15,2013-05-26 09:49:00,
2013-05-26 05:59:00,48.8,41.2,29.80,North,5,8.0,8.0,75,0.00,,,0.00,Wunderground v.1.15,2013-05-26 09:59:00,
2013-05-26 06:08:00,48.8,41.6,29.81,North,5,7.0,20.0,76,0.00,,,0.00,Wunderground v.1.15,2013-05-26 10:08:00,
2013-05-26 06:18:00,49.0,42.1,29.81,North,5,7.0,20.0,77,0.00,,,0.00,Wunderground v.1.15,2013-05-26 10:18:00,
2013-05-26 06:28:00,49.1,42.5,29.81,North,5,7.0,18.0,78,0.00,,,0.00,Wunderground v.1.15,2013-05-26 10:28:00,
2013-05-26 06:38:00,49.0,42.4,29.82,North,5,8.0,8.0,78,0.00,,,0.00,Wunderground v.1.15,2013-05-26 10:38:00,
2013-05-26 06:48:00,49.2,42.6,29.82,North,5,9.0,9.0,78,0.00,,,0.00,Wunderground v.1.15,2013-05-26 10:48:00,
2013-05-26 06:59:00,49.5,42.9,29.82,North,5,8.0,8.0,78,0.00,,,0.00,Wunderground v.1.15,2013-05-26 10:59:00,
2013-05-26 07:09:00,49.5,42.2,29.83,North,5,9.0,22.0,76,0.00,,,0.00,Wunderground v.1.15,2013-05-26 11:09:00,
2013-05-26 07:19:00,49.5,42.6,29.82,North,360,7.0,21.0,77,0.00,,,0.00,Wunderground v.1.15,2013-05-26 11:19:00,
2013-05-26 07:29:00,49.7,42.8,29.82,North,5,8.0,20.0,77,0.00,,,0.00,Wunderground v.1.15,2013-05-26 11:29:00,
2013-05-26 07:39:00,50.0,43.1,29.82,North,5,8.0,8.0,77,0.00,,,0.00,Wunderground v.1.15,2013-05-26 11:39:00,
2013-05-26 07:49:00,50.7,43.1,29.83,North,5,7.0,7.0,75,0.00,,,0.00,Wunderground v.1.15,2013-05-26 11:49:00,
2013-05-26 07:59:00,51.1,43.4,29.83,North,5,7.0,24.0,75,0.00,,,0.00,Wunderground v.1.15,2013-05-26 11:59:00,
2013-05-26 08:09:00,50.7,43.1,29.83,North,5,8.0,22.0,75,0.00,,,0.00,Wunderground v.1.15,2013-05-26 12:09:00,
2013-05-26 08:19:00,50.9,42.9,29.84,North,5,8.0,18.0,74,0.00,,,0.00,Wunderground v.1.15,2013-05-26 12:19:00,
2013-05-26 08:29:00,51.6,43.6,29.84,North,5,8.0,20.0,74,0.00,,,0.00,Wunderground v.1.15,2013-05-26 12:29:00,
2013-05-26 08:39:00,52.0,43.3,29.83,North,5,9.0,9.0,72,0.00,,,0.00,Wunderground v.1.15,2013-05-26 12:39:00,
2013-05-26 08:49:00,52.0,43.3,29.84,North,5,9.0,20.0,72,0.00,,,0.00,Wunderground v.1.15,2013-05-26 12:49:00,
2013-05-26 08:59:00,52.4,43.6,29.84,North,5,9.0,9.0,72,0.00,,,0.00,Wunderground v.1.15,2013-05-26 12:59:00,
2013-05-26 09:09:00,52.6,43.5,29.84,North,5,9.0,21.0,71,0.00,,,0.00,Wunderground v.1.15,2013-05-26 13:09:00,
2013-05-26 09:19:00,52.3,43.2,29.84,North,5,9.0,22.0,71,0.00,,,0.00,Wunderground v.1.15,2013-05-26 13:19:00,
2013-05-26 09:29:00,52.1,43.0,29.84,North,5,9.0,9.0,71,0.00,,,0.00,Wunderground v.1.15,2013-05-26 13:29:00,
2013-05-26 09:39:00,53.0,43.8,29.84,North,5,8.0,8.0,71,0.00,,,0.00,Wunderground v.1.15,2013-05-26 13:39:00,
2013-05-26 09:49:00,53.3,43.0,29.84,North,5,7.0,7.0,68,0.00,,,0.00,Wunderground v.1.15,2013-05-26 13:49:00,
2013-05-26 09:59:00,53.5,44.0,29.84,North,5,6.0,19.0,70,0.00,,,0.00,Wunderground v.1.15,2013-05-26 13:59:00,
2013-05-26 10:09:00,53.4,43.9,29.84,North,360,8.0,22.0,70,0.00,,,0.00,Wunderground v.1.15,2013-05-26 14:09:00,
2013-05-26 10:19:00,53.8,44.2,29.84,North,5,6.0,6.0,70,0.00,,,0.00,Wunderground v.1.15,2013-05-26 14:19:00,
2013-05-26 10:29:00,54.3,44.0,29.84,North,5,6.0,15.0,68,0.00,,,0.00,Wunderground v.1.15,2013-05-26 14:29:00,
2013-05-26 10:39:00,54.1,43.8,29.85,North,5,8.0,8.0,68,0.00,,,0.00,Wunderground v.1.15,2013-05-26 14:39:00,
2013-05-26 10:48:00,54.3,44.3,29.85,North,5,7.0,18.0,69,0.00,,,0.00,Wunderground v.1.15,2013-05-26 14:48:00,
2013-05-26 10:58:00,54.4,44.4,29.85,North,5,8.0,8.0,69,0.00,,,0.00,Wunderground v.1.15,2013-05-26 14:58:00,
2013-05-26 11:08:00,54.8,44.0,29.85,North,5,7.0,17.0,67,0.00,,,0.00,Wunderground v.1.15,2013-05-26 15:08:00,
2013-05-26 11:18:00,55.1,44.7,29.85,North,5,7.0,20.0,68,0.00,,,0.00,Wunderground v.1.15,2013-05-26 15:18:00,
2013-05-26 11:28:00,55.4,45.4,29.85,North,5,8.0,8.0,69,0.00,,,0.00,Wunderground v.1.15,2013-05-26 15:28:00,
2013-05-26 11:38:00,55.6,44.8,29.86,North,5,7.0,18.0,67,0.00,,,0.00,Wunderground v.1.15,2013-05-26 15:38:00,
2013-05-26 11:48:00,55.9,45.9,29.86,North,360,7.0,7.0,69,0.00,,,0.00,Wunderground v.1.15,2013-05-26 15:48:00,
2013-05-26 11:59:00,56.4,46.4,29.86,North,5,6.0,18.0,69,0.00,,,0.00,Wunderground v.1.15,2013-05-26 15:59:00,
2013-05-26 12:09:00,56.2,45.8,29.87,North,5,7.0,7.0,68,0.00,,,0.00,Wunderground v.1.15,2013-05-26 16:09:00,
2013-05-26 12:19:00,55.5,44.3,29.86,North,5,8.0,21.0,66,0.00,,,0.00,Wunderground v.1.15,2013-05-26 16:19:00,
2013-05-26 12:29:00,55.3,44.1,29.86,North,5,11.0,22.0,66,0.00,,,0.00,Wunderground v.1.15,2013-05-26 16:29:00,
2013-05-26 12:39:00,55.6,44.0,29.87,North,5,10.0,10.0,65,0.00,,,0.00,Wunderground v.1.15,2013-05-26 16:39:00,
2013-05-26 12:49:00,55.8,44.2,29.87,North,5,11.0,11.0,65,0.00,,,0.00,Wunderground v.1.15,2013-05-26 16:49:00,
2013-05-26 12:59:00,56.2,45.0,29.87,North,5,9.0,9.0,66,0.00,,,0.00,Wunderground v.1.15,2013-05-26 16:59:00,
2013-05-26 13:09:00,57.4,48.1,29.87,North,5,5.0,21.0,71,0.00,,,0.00,Wunderground v.1.15,2013-05-26 17:09:00,
2013-05-26 13:19:00,57.3,45.2,29.87,North,5,5.0,5.0,64,0.00,,,0.00,Wunderground v.1.15,2013-05-26 17:19:00,
2013-05-26 13:29:00,57.2,45.9,29.87,North,5,6.0,6.0,66,0.00,,,0.00,Wunderground v.1.15,2013-05-26 17:29:00,
2013-05-26 13:39:00,56.6,45.8,29.87,North,5,8.0,8.0,67,0.00,,,0.00,Wunderground v.1.15,2013-05-26 17:39:00,
2013-05-26 13:49:00,56.8,45.6,29.87,North,5,7.0,16.0,66,0.00,,,0.00,Wunderground v.1.15,2013-05-26 17:49:00,
2013-05-26 13:59:00,56.4,45.2,29.87,North,360,8.0,16.0,66,0.00,,,0.00,Wunderground v.1.15,2013-05-26 17:59:00,
2013-05-26 14:09:00,56.1,45.3,29.88,North,5,9.0,16.0,67,0.00,,,0.00,Wunderground v.1.15,2013-05-26 18:09:00,
2013-05-26 14:19:00,56.4,45.2,29.87,North,5,11.0,21.0,66,0.00,,,0.00,Wunderground v.1.15,2013-05-26 18:19:00,
2013-05-26 14:29:00,56.4,44.8,29.87,North,5,12.0,23.0,65,0.00,,,0.00,Wunderground v.1.15,2013-05-26 18:29:00,
2013-05-26 14:39:00,57.1,44.2,29.87,North,5,13.0,13.0,62,0.00,,,0.00,Wunderground v.1.15,2013-05-26 18:39:00,
2013-05-26 14:49:00,57.4,45.3,29.88,North,5,11.0,11.0,64,0.00,,,0.00,Wunderground v.1.15,2013-05-26 18:49:00,
2013-05-26 14:59:00,56.9,45.3,29.88,North,9,11.0,18.0,65,0.00,,,0.00,Wunderground v.1.15,2013-05-26 18:59:00,
2013-05-26 15:08:00,56.7,46.6,29.88,North,5,9.0,9.0,69,0.00,,,0.00,Wunderground v.1.15,2013-05-26 19:08:00,
2013-05-26 15:19:00,56.4,45.2,29.88,North,5,9.0,9.0,66,0.00,,,0.00,Wunderground v.1.15,2013-05-26 19:19:00,
2013-05-26 15:29:00,56.8,45.2,29.88,North,5,11.0,11.0,65,0.00,,,0.00,Wunderground v.1.15,2013-05-26 19:29:00,
2013-05-26 15:39:00,57.3,45.2,29.88,North,5,12.0,12.0,64,0.00,,,0.00,Wunderground v.1.15,2013-05-26 19:39:00,
2013-05-26 15:49:00,57.1,46.2,29.89,North,5,11.0,21.0,67,0.00,,,0.00,Wunderground v.1.15,2013-05-26 19:49:00,
2013-05-26 15:59:00,57.0,45.7,29.89,North,5,12.0,12.0,66,0.00,,,0.00,Wunderground v.1.15,2013-05-26 19:59:00,
2013-05-26 16:08:00,57.2,45.5,29.89,North,5,11.0,11.0,65,0.00,,,0.00,Wunderground v.1.15,2013-05-26 20:08:00,
2013-05-26 16:18:00,58.0,45.9,29.89,North,5,12.0,20.0,64,0.00,,,0.00,Wunderground v.1.15,2013-05-26 20:18:00,
2013-05-26 16:28:00,57.9,45.4,29.89,North,5,12.0,23.0,63,0.00,,,0.00,Wunderground v.1.15,2013-05-26 20:28:00,
2013-05-26 16:38:00,57.9,45.4,29.90,North,5,12.0,25.0,63,0.00,,,0.00,Wunderground v.1.15,2013-05-26 20:38:00,
2013-05-26 16:48:00,58.4,45.4,29.90,North,5,13.0,13.0,62,0.00,,,0.00,Wunderground v.1.15,2013-05-26 20:48:00,
2013-05-26 16:59:00,58.1,43.8,29.90,North,5,15.0,24.0,59,0.00,,,0.00,Wunderground v.1.15,2013-05-26 20:59:00,
2013-05-26 17:09:00,58.0,44.6,29.90,North,5,17.0,31.0,61,0.00,,,0.00,Wunderground v.1.15,2013-05-26 21:09:00,
2013-05-26 17:19:00,57.6,44.7,29.91,North,5,16.0,26.0,62,0.00,,,0.00,Wunderground v.1.15,2013-05-26 21:19:00,
2013-05-26 17:29:00,57.8,44.0,29.91,North,5,18.0,26.0,60,0.00,,,0.00,Wunderground v.1.15,2013-05-26 21:29:00,
2013-05-26 17:39:00,57.9,43.7,29.91,North,5,18.0,30.0,59,0.00,,,0.00,Wunderground v.1.15,2013-05-26 21:39:00,
2013-05-26 17:49:00,57.3,44.0,29.92,North,5,17.0,27.0,61,0.00,,,0.00,Wunderground v.1.15,2013-05-26 21:49:00,
2013-05-26 17:59:00,57.2,43.9,29.92,North,5,17.0,17.0,61,0.00,,,0.00,Wunderground v.1.15,2013-05-26 21:59:00,
2013-05-26 18:09:00,57.1,44.2,29.93,North,5,16.0,16.0,62,0.00,,,0.00,Wunderground v.1.15,2013-05-26 22:09:00,
2013-05-26 18:19:00,56.6,45.0,29.94,North,5,15.0,26.0,65,0.00,,,0.00,Wunderground v.1.15,2013-05-26 22:19:00,
2013-05-26 18:29:00,56.6,44.1,29.94,North,5,17.0,17.0,63,0.00,,,0.00,Wunderground v.1.15,2013-05-26 22:29:00,
2013-05-26 18:39:00,56.3,43.9,29.95,North,5,15.0,28.0,63,0.00,,,0.00,Wunderground v.1.15,2013-05-26 22:39:00,
2013-05-26 18:49:00,56.2,44.2,29.96,North,5,15.0,23.0,64,0.00,,,0.00,Wunderground v.1.15,2013-05-26 22:49:00,
2013-05-26 18:59:00,56.2,44.2,29.96,North,5,13.0,23.0,64,0.00,,,0.00,Wunderground v.1.15,2013-05-26 22:59:00,
2013-05-26 19:09:00,55.9,43.9,29.97,North,5,13.0,24.0,64,0.00,,,0.00,Wunderground v.1.15,2013-05-26 23:09:00,
2013-05-26 19:19:00,55.7,44.5,29.98,North,5,13.0,13.0,66,0.00,,,0.00,Wunderground v.1.15,2013-05-26 23:19:00,
2013-05-26 19:29:00,55.6,44.8,29.98,North,5,11.0,11.0,67,0.00,,,0.00,Wunderground v.1.15,2013-05-26 23:29:00,
2013-05-26 19:39:00,55.7,43.7,29.99,North,5,10.0,10.0,64,0.00,,,0.00,Wunderground v.1.15,2013-05-26 23:39:00,
2013-05-26 19:49:00,55.8,44.2,29.99,North,5,8.0,8.0,65,0.00,,,0.00,Wunderground v.1.15,2013-05-26 23:49:00,
2013-05-26 19:59:00,55.7,43.7,29.99,North,5,5.0,5.0,64,0.00,,,0.00,Wunderground v.1.15,2013-05-26 23:59:00,
2013-05-26 20:09:00,55.4,45.0,30.00,North,5,4.0,4.0,68,0.00,,,0.00,Wunderground v.1.15,2013-05-27 00:09:00,
2013-05-26 20:19:00,55.2,45.6,30.01,North,5,3.0,8.0,70,0.00,,,0.00,Wunderground v.1.15,2013-05-27 00:19:00,
2013-05-26 20:28:00,55.0,44.6,30.01,North,5,2.0,6.0,68,0.00,,,0.00,Wunderground v.1.15,2013-05-27 00:28:00,
2013-05-26 20:38:00,55.0,45.4,30.01,North,5,2.0,2.0,70,0.00,,,0.00,Wunderground v.1.15,2013-05-27 00:38:00,
2013-05-26 20:48:00,54.9,45.3,30.01,North,5,2.0,7.0,70,0.00,,,0.00,Wunderground v.1.15,2013-05-27 00:48:00,
2013-05-26 20:58:00,54.8,45.2,30.01,North,5,1.0,1.0,70,0.00,,,0.00,Wunderground v.1.15,2013-05-27 00:58:00,
2013-05-26 21:08:00,54.6,46.5,30.02,North,5,1.0,1.0,74,0.00,,,0.00,Wunderground v.1.15,2013-05-27 01:08:00,
2013-05-26 21:18:00,54.3,46.5,30.03,North,5,0.0,2.0,75,0.00,,,0.00,Wunderground v.1.15,2013-05-27 01:18:00,
2013-05-26 21:28:00,54.2,46.8,30.03,North,5,0.0,3.0,76,0.00,,,0.00,Wunderground v.1.15,2013-05-27 01:28:00,
2013-05-26 21:38:00,53.9,46.9,30.04,North,5,0.0,3.0,77,0.00,,,0.00,Wunderground v.1.15,2013-05-27 01:38:00,
2013-05-26 21:48:00,53.3,45.9,30.04,North,5,0.0,2.0,76,0.00,,,0.00,Wunderground v.1.15,2013-05-27 01:48:00,
2013-05-26 21:59:00,52.6,45.2,30.04,North,5,0.0,0.0,76,0.00,,,0.00,Wunderground v.1.15,2013-05-27 01:59:00,
2013-05-26 22:09:00,51.9,44.9,30.05,North,5,0.0,0.0,77,0.00,,,0.00,Wunderground v.1.15,2013-05-27 02:09:00,
2013-05-26 22:19:00,51.2,44.2,30.05,North,5,0.0,0.0,77,0.00,,,0.00,Wunderground v.1.15,2013-05-27 02:19:00,
2013-05-26 22:29:00,50.6,44.3,30.05,North,5,0.0,0.0,79,0.00,,,0.00,Wunderground v.1.15,2013-05-27 02:29:00,
2013-05-26 22:39:00,50.2,43.9,30.06,North,5,0.0,0.0,79,0.00,,,0.00,Wunderground v.1.15,2013-05-27 02:39:00,
2013-05-26 22:49:00,49.7,44.1,30.07,North,5,0.0,0.0,81,0.00,,,0.00,Wunderground v.1.15,2013-05-27 02:49:00,
2013-05-26 22:59:00,49.2,43.3,30.07,North,5,1.0,1.0,80,0.00,,,0.00,Wunderground v.1.15,2013-05-27 02:59:00,
2013-05-26 23:09:00,48.8,43.2,30.07,North,5,1.0,3.0,81,0.00,,,0.00,Wunderground v.1.15,2013-05-27 03:09:00,
2013-05-26 23:19:00,48.5,43.3,30.07,North,5,2.0,4.0,82,0.00,,,0.00,Wunderground v.1.15,2013-05-27 03:19:00,
2013-05-26 23:29:00,47.9,43.0,30.07,North,5,3.0,4.0,83,0.00,,,0.00,Wunderground v.1.15,2013-05-27 03:29:00,
2013-05-26 23:39:00,47.5,43.2,30.07,North,5,2.0,4.0,85,0.00,,,0.00,Wunderground v.1.15,2013-05-27 03:39:00,
2013-05-26 23:49:00,47.5,42.9,30.07,North,5,1.0,4.0,84,0.00,,,0.00,Wunderground v.1.15,2013-05-27 03:49:00,
2013-05-26 23:59:00,47.7,42.5,30.07,North,5,2.0,3.0,82,0.00,,,0.00,Wunderground v.1.15,2013-05-27 03:59:00,